Normand Subsea — 2CQP8 — position and weather

sailwx.info

Track history (hours):
 
Tides and Currents Weather Stations Pressure Air Temp Water Temp Dewpoint Dewpoint Depression Visibility Wind Speed Wind Dir Waves Ship Positions

Normand Subsea

Last reported at 2014-Nov-21 17:11 UTC. Time now 2014-Nov-23 21:16 UTC.
Position N 57°29' W 001°33'.

Length 113 m; draft 7.4 m.

Type: Other ship. MMSI: 235074949.

Date/timePositionNaut miles runAvg speedWind from/ knotsBaromVisibWave heightAir tempDewpointWater temp
2014-Nov-21 17:11N 57°29' W 001°33'6 9.5
2014-Nov-21 16:30N 57°30' W 001°45'1 0.8
2014-Nov-21 15:13N 57°30' W 001°47'0 0.0
2014-Nov-21 14:31N 57°30' W 001°47'0 0.0
2014-Nov-21 13:31N 57°30' W 001°47'0 0.0
2014-Nov-21 12:31N 57°30' W 001°47'0 0.0
2014-Nov-21 11:28N 57°30' W 001°47'0 0.0
2014-Nov-21 10:31N 57°30' W 001°47'0 0.0
2014-Nov-21 09:31N 57°30' W 001°47'0 0.0
2014-Nov-21 08:31N 57°30' W 001°47'0 0.0
2014-Nov-21 07:31N 57°30' W 001°47'0 0.0
2014-Nov-21 06:31N 57°30' W 001°47'0 0.0
2014-Nov-21 05:31N 57°30' W 001°47'0 0.0
2014-Nov-21 04:31N 57°30' W 001°47'0 0.0
2014-Nov-21 03:31N 57°30' W 001°47'0 0.0
2014-Nov-21 02:31N 57°30' W 001°47'0 0.0
2014-Nov-21 01:31N 57°30' W 001°47'0 0.0
2014-Nov-21 00:31N 57°30' W 001°47'0 0.0
2014-Nov-20 23:31N 57°30' W 001°47'0 0.0
2014-Nov-20 22:31N 57°30' W 001°47'0 0.0
2014-Nov-20 21:31N 57°30' W 001°47'0 0.0
2014-Nov-20 20:31N 57°30' W 001°47'0 0.0
2014-Nov-20 19:31N 57°30' W 001°47'0 0.0
2014-Nov-20 18:31N 57°30' W 001°47'0 0.0
2014-Nov-20 17:31N 57°30' W 001°47'0 0.0
2014-Nov-20 16:31N 57°30' W 001°47'0 0.0
2014-Nov-20 15:31N 57°30' W 001°47'0 0.0
2014-Nov-20 14:31N 57°30' W 001°47'0 0.0
2014-Nov-20 13:31N 57°30' W 001°47'0 0.0
2014-Nov-20 12:31N 57°30' W 001°47'0 0.0
2014-Nov-20 11:31N 57°30' W 001°47'0 0.0
2014-Nov-20 10:31N 57°30' W 001°47'0 0.0
2014-Nov-20 09:31N 57°30' W 001°47'2 1.6
2014-Nov-20 08:33N 57°29' W 001°45'8 7.6
2014-Nov-20 07:33N 57°27' W 001°31'1312.8
2014-Nov-20 06:33N 57°23' W 001°08'  
2014-Nov-17 21:15N 57°44' W 001°28'6 8.4
2014-Nov-17 20:33N 57°45' W 001°39'8 8.3
2014-Nov-17 19:33N 57°45' W 001°55'8 7.5
2014-Nov-17 18:27N 57°46' W 002°10'3 0.1
2014-Nov-16 21:29N 57°45' W 002°06'910.0
2014-Nov-16 20:33N 57°44' W 001°48'10 9.9
2014-Nov-16 19:33N 57°44' W 001°30'1010.0
2014-Nov-16 18:33N 57°43' W 001°11'  
Track history (hours):
 
Tides and Currents Weather Stations Pressure Air Temp Water Temp Dewpoint Dewpoint Depression Visibility Wind Speed Wind Dir Waves Ship Positions

Normand Subsea

Last reported at 2014-Nov-21 17:11 UTC. Time now 2014-Nov-23 21:16 UTC.
Position N 57°29' W 001°33'.

Length 113 m; draft 7.4 m.

Type: Other ship. MMSI: 235074949.

Date/timePositionNaut miles runAvg speedWind from/ knotsBaromVisibWave heightAir tempDewpointWater temp
2014-Nov-21 17:11N 57°29' W 001°33'6 9.5
2014-Nov-21 16:30N 57°30' W 001°45'1 0.8
2014-Nov-21 15:13N 57°30' W 001°47'0 0.0
2014-Nov-21 14:31N 57°30' W 001°47'0 0.0
2014-Nov-21 13:31N 57°30' W 001°47'0 0.0
2014-Nov-21 12:31N 57°30' W 001°47'0 0.0
2014-Nov-21 11:28N 57°30' W 001°47'0 0.0
2014-Nov-21 10:31N 57°30' W 001°47'0 0.0
2014-Nov-21 09:31N 57°30' W 001°47'0 0.0
2014-Nov-21 08:31N 57°30' W 001°47'0 0.0
2014-Nov-21 07:31N 57°30' W 001°47'0 0.0
2014-Nov-21 06:31N 57°30' W 001°47'0 0.0
2014-Nov-21 05:31N 57°30' W 001°47'0 0.0
2014-Nov-21 04:31N 57°30' W 001°47'0 0.0
2014-Nov-21 03:31N 57°30' W 001°47'0 0.0
2014-Nov-21 02:31N 57°30' W 001°47'0 0.0
2014-Nov-21 01:31N 57°30' W 001°47'0 0.0
2014-Nov-21 00:31N 57°30' W 001°47'0 0.0
2014-Nov-20 23:31N 57°30' W 001°47'0 0.0
2014-Nov-20 22:31N 57°30' W 001°47'0 0.0
2014-Nov-20 21:31N 57°30' W 001°47'0 0.0
2014-Nov-20 20:31N 57°30' W 001°47'0 0.0
2014-Nov-20 19:31N 57°30' W 001°47'0 0.0
2014-Nov-20 18:31N 57°30' W 001°47'0 0.0
2014-Nov-20 17:31N 57°30' W 001°47'0 0.0
2014-Nov-20 16:31N 57°30' W 001°47'0 0.0
2014-Nov-20 15:31N 57°30' W 001°47'0 0.0
2014-Nov-20 14:31N 57°30' W 001°47'0 0.0
2014-Nov-20 13:31N 57°30' W 001°47'0 0.0
2014-Nov-20 12:31N 57°30' W 001°47'0 0.0
2014-Nov-20 11:31N 57°30' W 001°47'0 0.0
2014-Nov-20 10:31N 57°30' W 001°47'0 0.0
2014-Nov-20 09:31N 57°30' W 001°47'2 1.6
2014-Nov-20 08:33N 57°29' W 001°45'8 7.6
2014-Nov-20 07:33N 57°27' W 001°31'1312.8
2014-Nov-20 06:33N 57°23' W 001°08'  
2014-Nov-17 21:15N 57°44' W 001°28'6 8.4
2014-Nov-17 20:33N 57°45' W 001°39'8 8.3
2014-Nov-17 19:33N 57°45' W 001°55'8 7.5
2014-Nov-17 18:27N 57°46' W 002°10'3 0.1
2014-Nov-16 21:29N 57°45' W 002°06'910.0
2014-Nov-16 20:33N 57°44' W 001°48'10 9.9
2014-Nov-16 19:33N 57°44' W 001°30'1010.0
2014-Nov-16 18:33N 57°43' W 001°11'  

Dump ship's entire track history